sensor_id;sensor_type;location;lat;lon;timestamp;P1;durP1;ratioP1;P2;durP2;ratioP2
15624;SDS011;7912;51.376;6.126;2023-05-29T00:01:46;6.87;;;5.47;;
15624;SDS011;7912;51.376;6.126;2023-05-29T00:04:13;8.93;;;5.97;;
15624;SDS011;7912;51.376;6.126;2023-05-29T00:06:41;9.43;;;6.10;;
15624;SDS011;7912;51.376;6.126;2023-05-29T00:09:08;7.70;;;5.60;;
15624;SDS011;7912;51.376;6.126;2023-05-29T00:11:35;8.60;;;5.70;;
15624;SDS011;7912;51.376;6.126;2023-05-29T00:14:03;8.73;;;5.67;;
15624;SDS011;7912;51.376;6.126;2023-05-29T00:16:30;8.37;;;5.80;;
15624;SDS011;7912;51.376;6.126;2023-05-29T00:18:57;8.40;;;5.73;;
15624;SDS011;7912;51.376;6.126;2023-05-29T00:21:25;7.20;;;5.47;;
15624;SDS011;7912;51.376;6.126;2023-05-29T00:23:52;7.67;;;5.63;;
15624;SDS011;7912;51.376;6.126;2023-05-29T00:26:19;8.27;;;5.90;;
15624;SDS011;7912;51.376;6.126;2023-05-29T00:28:47;8.03;;;6.33;;
15624;SDS011;7912;51.376;6.126;2023-05-29T00:31:14;7.87;;;5.90;;
15624;SDS011;7912;51.376;6.126;2023-05-29T00:33:41;8.07;;;5.57;;
15624;SDS011;7912;51.376;6.126;2023-05-29T00:36:09;9.00;;;5.80;;
15624;SDS011;7912;51.376;6.126;2023-05-29T00:38:37;7.77;;;5.90;;
15624;SDS011;7912;51.376;6.126;2023-05-29T00:41:04;7.90;;;5.60;;
15624;SDS011;7912;51.376;6.126;2023-05-29T00:43:31;9.70;;;5.93;;
15624;SDS011;7912;51.376;6.126;2023-05-29T00:45:58;6.77;;;5.97;;
15624;SDS011;7912;51.376;6.126;2023-05-29T00:48:26;8.83;;;5.87;;
15624;SDS011;7912;51.376;6.126;2023-05-29T00:50:53;8.13;;;5.63;;
15624;SDS011;7912;51.376;6.126;2023-05-29T00:53:22;6.80;;;5.73;;
15624;SDS011;7912;51.376;6.126;2023-05-29T00:55:50;6.83;;;5.30;;
15624;SDS011;7912;51.376;6.126;2023-05-29T00:58:19;9.07;;;6.27;;
15624;SDS011;7912;51.376;6.126;2023-05-29T01:00:47;7.30;;;5.73;;
15624;SDS011;7912;51.376;6.126;2023-05-29T01:03:15;9.57;;;6.30;;
15624;SDS011;7912;51.376;6.126;2023-05-29T01:05:43;9.07;;;6.13;;
15624;SDS011;7912;51.376;6.126;2023-05-29T01:08:12;8.10;;;5.70;;
15624;SDS011;7912;51.376;6.126;2023-05-29T01:10:40;9.70;;;6.27;;
15624;SDS011;7912;51.376;6.126;2023-05-29T01:15:59;8.37;;;6.37;;
15624;SDS011;7912;51.376;6.126;2023-05-29T01:18:54;11.63;;;5.90;;
15624;SDS011;7912;51.376;6.126;2023-05-29T01:21:42;8.43;;;6.03;;
15624;SDS011;7912;51.376;6.126;2023-05-29T01:24:47;6.87;;;5.47;;
15624;SDS011;7912;51.376;6.126;2023-05-29T01:27:35;8.43;;;5.23;;
15624;SDS011;7912;51.376;6.126;2023-05-29T01:30:05;11.60;;;5.97;;
15624;SDS011;7912;51.376;6.126;2023-05-29T01:32:37;10.77;;;5.17;;
15624;SDS011;7912;51.376;6.126;2023-05-29T01:35:06;8.07;;;5.30;;
15624;SDS011;7912;51.376;6.126;2023-05-29T01:37:34;11.17;;;5.43;;
15624;SDS011;7912;51.376;6.126;2023-05-29T01:40:01;9.93;;;5.47;;
15624;SDS011;7912;51.376;6.126;2023-05-29T01:48:06;8.93;;;4.87;;
15624;SDS011;7912;51.376;6.126;2023-05-29T01:50:34;10.53;;;4.83;;
15624;SDS011;7912;51.376;6.126;2023-05-29T01:53:02;8.60;;;4.57;;
15624;SDS011;7912;51.376;6.126;2023-05-29T01:55:29;8.47;;;4.87;;
15624;SDS011;7912;51.376;6.126;2023-05-29T01:57:56;9.07;;;5.00;;
15624;SDS011;7912;51.376;6.126;2023-05-29T02:00:25;11.13;;;4.67;;
15624;SDS011;7912;51.376;6.126;2023-05-29T02:02:52;10.13;;;4.97;;
15624;SDS011;7912;51.376;6.126;2023-05-29T02:05:19;11.73;;;5.00;;
15624;SDS011;7912;51.376;6.126;2023-05-29T02:07:47;11.90;;;4.73;;
15624;SDS011;7912;51.376;6.126;2023-05-29T02:10:15;10.60;;;4.40;;
15624;SDS011;7912;51.376;6.126;2023-05-29T02:12:42;9.00;;;4.13;;
15624;SDS011;7912;51.376;6.126;2023-05-29T02:15:09;12.17;;;4.63;;
15624;SDS011;7912;51.376;6.126;2023-05-29T02:17:37;10.03;;;4.50;;
15624;SDS011;7912;51.376;6.126;2023-05-29T02:20:04;10.77;;;4.40;;
15624;SDS011;7912;51.376;6.126;2023-05-29T02:22:33;9.40;;;4.20;;
15624;SDS011;7912;51.376;6.126;2023-05-29T02:25:01;9.37;;;4.57;;
15624;SDS011;7912;51.376;6.126;2023-05-29T02:27:28;7.57;;;3.93;;
15624;SDS011;7912;51.376;6.126;2023-05-29T02:29:55;9.90;;;4.13;;
15624;SDS011;7912;51.376;6.126;2023-05-29T02:32:22;9.70;;;4.20;;
15624;SDS011;7912;51.376;6.126;2023-05-29T02:34:50;10.83;;;4.00;;
15624;SDS011;7912;51.376;6.126;2023-05-29T02:37:18;11.53;;;4.30;;
15624;SDS011;7912;51.376;6.126;2023-05-29T02:39:46;9.57;;;3.63;;
15624;SDS011;7912;51.376;6.126;2023-05-29T02:42:13;9.80;;;4.10;;
15624;SDS011;7912;51.376;6.126;2023-05-29T02:44:40;7.97;;;4.00;;
15624;SDS011;7912;51.376;6.126;2023-05-29T02:47:08;9.80;;;4.37;;
15624;SDS011;7912;51.376;6.126;2023-05-29T02:49:35;10.00;;;3.70;;
15624;SDS011;7912;51.376;6.126;2023-05-29T02:52:02;10.37;;;3.97;;
15624;SDS011;7912;51.376;6.126;2023-05-29T02:54:30;8.03;;;3.60;;
15624;SDS011;7912;51.376;6.126;2023-05-29T02:56:57;11.73;;;3.70;;
15624;SDS011;7912;51.376;6.126;2023-05-29T02:59:24;8.00;;;3.40;;
15624;SDS011;7912;51.376;6.126;2023-05-29T03:01:51;10.93;;;4.20;;
15624;SDS011;7912;51.376;6.126;2023-05-29T03:04:19;11.37;;;4.03;;
15624;SDS011;7912;51.376;6.126;2023-05-29T03:06:46;11.47;;;3.33;;
15624;SDS011;7912;51.376;6.126;2023-05-29T03:09:13;7.73;;;3.43;;
15624;SDS011;7912;51.376;6.126;2023-05-29T03:11:42;9.73;;;3.47;;
15624;SDS011;7912;51.376;6.126;2023-05-29T03:14:11;8.80;;;3.77;;
15624;SDS011;7912;51.376;6.126;2023-05-29T03:16:38;9.37;;;3.23;;
15624;SDS011;7912;51.376;6.126;2023-05-29T03:19:07;7.73;;;3.53;;
15624;SDS011;7912;51.376;6.126;2023-05-29T03:21:34;11.33;;;3.50;;
15624;SDS011;7912;51.376;6.126;2023-05-29T03:24:02;11.00;;;3.37;;
15624;SDS011;7912;51.376;6.126;2023-05-29T03:26:29;9.90;;;3.43;;
15624;SDS011;7912;51.376;6.126;2023-05-29T03:28:57;8.40;;;3.87;;
15624;SDS011;7912;51.376;6.126;2023-05-29T03:31:24;8.70;;;3.63;;
15624;SDS011;7912;51.376;6.126;2023-05-29T03:33:52;9.27;;;3.70;;
15624;SDS011;7912;51.376;6.126;2023-05-29T03:36:19;8.07;;;3.20;;
15624;SDS011;7912;51.376;6.126;2023-05-29T03:38:46;12.70;;;3.60;;
15624;SDS011;7912;51.376;6.126;2023-05-29T03:41:14;9.73;;;3.63;;
15624;SDS011;7912;51.376;6.126;2023-05-29T03:43:41;13.80;;;3.90;;
15624;SDS011;7912;51.376;6.126;2023-05-29T03:46:08;11.67;;;3.47;;
15624;SDS011;7912;51.376;6.126;2023-05-29T03:48:35;10.53;;;3.80;;
15624;SDS011;7912;51.376;6.126;2023-05-29T03:51:04;11.87;;;4.20;;
15624;SDS011;7912;51.376;6.126;2023-05-29T03:53:31;10.10;;;3.80;;
15624;SDS011;7912;51.376;6.126;2023-05-29T03:55:59;10.33;;;3.70;;
15624;SDS011;7912;51.376;6.126;2023-05-29T03:58:26;7.07;;;3.30;;
15624;SDS011;7912;51.376;6.126;2023-05-29T04:00:54;9.73;;;3.37;;
15624;SDS011;7912;51.376;6.126;2023-05-29T04:03:21;12.23;;;3.60;;
15624;SDS011;7912;51.376;6.126;2023-05-29T04:05:49;8.20;;;3.73;;
15624;SDS011;7912;51.376;6.126;2023-05-29T04:08:16;8.93;;;3.37;;
15624;SDS011;7912;51.376;6.126;2023-05-29T04:10:43;9.40;;;3.33;;
15624;SDS011;7912;51.376;6.126;2023-05-29T04:13:11;13.03;;;3.60;;
15624;SDS011;7912;51.376;6.126;2023-05-29T04:15:38;9.83;;;3.53;;
15624;SDS011;7912;51.376;6.126;2023-05-29T04:18:05;11.07;;;3.77;;
15624;SDS011;7912;51.376;6.126;2023-05-29T04:20:33;11.37;;;3.67;;
15624;SDS011;7912;51.376;6.126;2023-05-29T04:23:00;11.47;;;3.70;;
15624;SDS011;7912;51.376;6.126;2023-05-29T04:25:27;13.70;;;3.73;;
15624;SDS011;7912;51.376;6.126;2023-05-29T04:27:54;12.27;;;3.47;;
15624;SDS011;7912;51.376;6.126;2023-05-29T04:30:22;10.17;;;3.67;;
15624;SDS011;7912;51.376;6.126;2023-05-29T04:32:49;11.97;;;4.03;;
15624;SDS011;7912;51.376;6.126;2023-05-29T04:35:18;10.03;;;3.20;;
15624;SDS011;7912;51.376;6.126;2023-05-29T04:37:46;10.77;;;3.53;;
15624;SDS011;7912;51.376;6.126;2023-05-29T04:40:13;11.23;;;4.13;;
15624;SDS011;7912;51.376;6.126;2023-05-29T04:42:43;11.30;;;3.57;;
15624;SDS011;7912;51.376;6.126;2023-05-29T04:45:13;9.57;;;4.43;;
15624;SDS011;7912;51.376;6.126;2023-05-29T04:47:41;10.30;;;3.90;;
15624;SDS011;7912;51.376;6.126;2023-05-29T04:50:11;12.03;;;3.90;;
15624;SDS011;7912;51.376;6.126;2023-05-29T04:52:39;12.00;;;3.87;;
15624;SDS011;7912;51.376;6.126;2023-05-29T04:55:06;10.03;;;3.40;;
15624;SDS011;7912;51.376;6.126;2023-05-29T04:57:34;11.70;;;3.63;;
15624;SDS011;7912;51.376;6.126;2023-05-29T05:00:01;10.80;;;3.50;;
15624;SDS011;7912;51.376;6.126;2023-05-29T05:02:34;11.20;;;3.90;;
15624;SDS011;7912;51.376;6.126;2023-05-29T05:05:03;10.10;;;3.10;;
15624;SDS011;7912;51.376;6.126;2023-05-29T05:07:31;10.13;;;3.40;;
15624;SDS011;7912;51.376;6.126;2023-05-29T05:09:58;9.70;;;3.60;;
15624;SDS011;7912;51.376;6.126;2023-05-29T05:12:25;11.67;;;3.53;;
15624;SDS011;7912;51.376;6.126;2023-05-29T05:14:52;10.53;;;3.63;;
15624;SDS011;7912;51.376;6.126;2023-05-29T05:17:20;11.87;;;3.87;;
15624;SDS011;7912;51.376;6.126;2023-05-29T05:19:48;10.73;;;3.70;;
15624;SDS011;7912;51.376;6.126;2023-05-29T05:22:15;11.80;;;3.90;;
15624;SDS011;7912;51.376;6.126;2023-05-29T05:24:42;11.23;;;3.53;;
15624;SDS011;7912;51.376;6.126;2023-05-29T05:27:10;12.07;;;3.50;;
15624;SDS011;7912;51.376;6.126;2023-05-29T05:29:37;9.90;;;3.40;;
15624;SDS011;7912;51.376;6.126;2023-05-29T05:32:05;14.07;;;4.00;;
15624;SDS011;7912;51.376;6.126;2023-05-29T05:34:33;10.13;;;3.70;;
15624;SDS011;7912;51.376;6.126;2023-05-29T05:37:00;10.30;;;3.50;;
15624;SDS011;7912;51.376;6.126;2023-05-29T05:39:29;11.90;;;3.93;;
15624;SDS011;7912;51.376;6.126;2023-05-29T05:41:56;9.70;;;3.70;;
15624;SDS011;7912;51.376;6.126;2023-05-29T05:44:23;10.03;;;3.30;;
15624;SDS011;7912;51.376;6.126;2023-05-29T05:46:51;10.27;;;3.70;;
15624;SDS011;7912;51.376;6.126;2023-05-29T05:49:19;9.07;;;4.00;;
15624;SDS011;7912;51.376;6.126;2023-05-29T05:51:46;10.03;;;3.37;;
15624;SDS011;7912;51.376;6.126;2023-05-29T05:54:16;9.00;;;3.10;;
15624;SDS011;7912;51.376;6.126;2023-05-29T05:56:43;12.17;;;3.80;;
15624;SDS011;7912;51.376;6.126;2023-05-29T05:59:10;13.33;;;3.73;;
15624;SDS011;7912;51.376;6.126;2023-05-29T06:01:37;12.23;;;3.40;;
15624;SDS011;7912;51.376;6.126;2023-05-29T06:04:05;10.27;;;3.77;;
15624;SDS011;7912;51.376;6.126;2023-05-29T06:06:32;13.17;;;3.93;;
15624;SDS011;7912;51.376;6.126;2023-05-29T06:08:59;9.67;;;3.23;;
15624;SDS011;7912;51.376;6.126;2023-05-29T06:11:27;8.93;;;3.90;;
15624;SDS011;7912;51.376;6.126;2023-05-29T06:13:55;9.53;;;3.37;;
15624;SDS011;7912;51.376;6.126;2023-05-29T06:16:22;8.07;;;3.37;;
15624;SDS011;7912;51.376;6.126;2023-05-29T06:18:49;9.10;;;3.20;;
15624;SDS011;7912;51.376;6.126;2023-05-29T06:21:17;8.80;;;3.63;;
15624;SDS011;7912;51.376;6.126;2023-05-29T06:23:44;10.20;;;3.57;;
15624;SDS011;7912;51.376;6.126;2023-05-29T06:26:11;12.50;;;3.67;;
15624;SDS011;7912;51.376;6.126;2023-05-29T06:28:39;10.00;;;3.73;;
15624;SDS011;7912;51.376;6.126;2023-05-29T06:31:07;10.57;;;3.57;;
15624;SDS011;7912;51.376;6.126;2023-05-29T06:33:37;8.43;;;3.20;;
15624;SDS011;7912;51.376;6.126;2023-05-29T06:36:05;9.83;;;3.63;;
15624;SDS011;7912;51.376;6.126;2023-05-29T06:38:33;10.17;;;3.80;;
15624;SDS011;7912;51.376;6.126;2023-05-29T06:41:00;10.93;;;3.70;;
15624;SDS011;7912;51.376;6.126;2023-05-29T06:43:28;10.13;;;3.87;;
15624;SDS011;7912;51.376;6.126;2023-05-29T06:45:55;8.77;;;3.40;;
15624;SDS011;7912;51.376;6.126;2023-05-29T06:48:22;7.53;;;3.10;;
15624;SDS011;7912;51.376;6.126;2023-05-29T06:50:50;13.63;;;3.67;;
15624;SDS011;7912;51.376;6.126;2023-05-29T06:53:17;9.73;;;3.37;;
15624;SDS011;7912;51.376;6.126;2023-05-29T06:55:44;9.47;;;3.47;;
15624;SDS011;7912;51.376;6.126;2023-05-29T06:58:12;8.63;;;3.30;;
15624;SDS011;7912;51.376;6.126;2023-05-29T07:00:39;15.00;;;3.70;;
15624;SDS011;7912;51.376;6.126;2023-05-29T07:03:06;10.37;;;3.20;;
15624;SDS011;7912;51.376;6.126;2023-05-29T07:05:34;9.63;;;3.13;;
15624;SDS011;7912;51.376;6.126;2023-05-29T07:08:01;11.07;;;3.17;;
15624;SDS011;7912;51.376;6.126;2023-05-29T07:10:29;10.47;;;3.40;;
15624;SDS011;7912;51.376;6.126;2023-05-29T07:12:56;9.87;;;3.40;;
15624;SDS011;7912;51.376;6.126;2023-05-29T07:15:23;12.43;;;3.23;;
15624;SDS011;7912;51.376;6.126;2023-05-29T07:17:51;13.27;;;3.60;;
15624;SDS011;7912;51.376;6.126;2023-05-29T07:20:18;9.23;;;2.80;;
15624;SDS011;7912;51.376;6.126;2023-05-29T07:22:46;8.73;;;3.30;;
15624;SDS011;7912;51.376;6.126;2023-05-29T07:25:14;10.30;;;3.37;;
15624;SDS011;7912;51.376;6.126;2023-05-29T07:27:41;10.27;;;3.77;;
15624;SDS011;7912;51.376;6.126;2023-05-29T07:30:08;7.70;;;3.20;;
15624;SDS011;7912;51.376;6.126;2023-05-29T07:32:36;7.60;;;2.93;;
15624;SDS011;7912;51.376;6.126;2023-05-29T07:35:04;7.53;;;3.20;;
15624;SDS011;7912;51.376;6.126;2023-05-29T07:37:32;7.27;;;2.93;;
15624;SDS011;7912;51.376;6.126;2023-05-29T07:40:00;9.23;;;2.87;;
15624;SDS011;7912;51.376;6.126;2023-05-29T07:42:30;9.77;;;2.97;;
15624;SDS011;7912;51.376;6.126;2023-05-29T07:44:59;7.77;;;3.10;;
15624;SDS011;7912;51.376;6.126;2023-05-29T07:47:26;7.40;;;3.13;;
15624;SDS011;7912;51.376;6.126;2023-05-29T07:49:54;8.67;;;3.30;;
15624;SDS011;7912;51.376;6.126;2023-05-29T07:52:21;8.43;;;3.13;;
15624;SDS011;7912;51.376;6.126;2023-05-29T07:54:48;9.10;;;3.13;;
15624;SDS011;7912;51.376;6.126;2023-05-29T07:57:16;7.83;;;3.20;;
15624;SDS011;7912;51.376;6.126;2023-05-29T07:59:43;9.47;;;3.30;;
15624;SDS011;7912;51.376;6.126;2023-05-29T08:02:10;7.83;;;2.80;;
15624;SDS011;7912;51.376;6.126;2023-05-29T08:04:38;10.03;;;3.20;;
15624;SDS011;7912;51.376;6.126;2023-05-29T08:07:05;6.97;;;2.97;;
15624;SDS011;7912;51.376;6.126;2023-05-29T08:09:32;11.43;;;3.23;;
15624;SDS011;7912;51.376;6.126;2023-05-29T08:12:00;9.30;;;3.10;;
15624;SDS011;7912;51.376;6.126;2023-05-29T08:14:28;10.13;;;3.30;;
15624;SDS011;7912;51.376;6.126;2023-05-29T08:16:55;6.13;;;2.93;;
15624;SDS011;7912;51.376;6.126;2023-05-29T08:19:23;8.70;;;3.10;;
15624;SDS011;7912;51.376;6.126;2023-05-29T08:28:47;7.97;;;3.17;;
15624;SDS011;7912;51.376;6.126;2023-05-29T08:31:14;9.63;;;3.53;;
15624;SDS011;7912;51.376;6.126;2023-05-29T08:33:42;8.10;;;3.07;;
15624;SDS011;7912;51.376;6.126;2023-05-29T08:36:09;8.87;;;3.43;;
15624;SDS011;7912;51.376;6.126;2023-05-29T08:38:37;7.30;;;3.40;;
15624;SDS011;7912;51.376;6.126;2023-05-29T08:41:04;9.87;;;3.10;;
15624;SDS011;7912;51.376;6.126;2023-05-29T08:43:33;7.50;;;3.33;;
15624;SDS011;7912;51.376;6.126;2023-05-29T08:46:02;11.77;;;3.23;;
15624;SDS011;7912;51.376;6.126;2023-05-29T08:48:30;8.93;;;3.27;;
15624;SDS011;7912;51.376;6.126;2023-05-29T08:50:58;8.80;;;3.10;;
15624;SDS011;7912;51.376;6.126;2023-05-29T08:53:29;9.07;;;3.70;;
15624;SDS011;7912;51.376;6.126;2023-05-29T08:56:00;8.13;;;3.20;;
15624;SDS011;7912;51.376;6.126;2023-05-29T08:58:29;8.53;;;3.13;;
15624;SDS011;7912;51.376;6.126;2023-05-29T09:00:57;8.03;;;3.07;;
15624;SDS011;7912;51.376;6.126;2023-05-29T09:03:26;8.13;;;3.00;;
15624;SDS011;7912;51.376;6.126;2023-05-29T09:05:57;9.73;;;3.20;;
15624;SDS011;7912;51.376;6.126;2023-05-29T09:08:26;5.97;;;3.13;;
15624;SDS011;7912;51.376;6.126;2023-05-29T09:10:54;9.03;;;3.30;;
15624;SDS011;7912;51.376;6.126;2023-05-29T09:13:24;5.60;;;3.20;;
15624;SDS011;7912;51.376;6.126;2023-05-29T09:15:56;7.00;;;3.10;;
15624;SDS011;7912;51.376;6.126;2023-05-29T09:18:30;7.53;;;3.03;;
15624;SDS011;7912;51.376;6.126;2023-05-29T09:20:58;8.60;;;3.03;;
15624;SDS011;7912;51.376;6.126;2023-05-29T09:23:28;8.00;;;2.90;;
15624;SDS011;7912;51.376;6.126;2023-05-29T09:25:55;8.07;;;3.37;;
15624;SDS011;7912;51.376;6.126;2023-05-29T09:28:24;8.87;;;3.00;;
15624;SDS011;7912;51.376;6.126;2023-05-29T09:30:53;4.67;;;2.80;;
15624;SDS011;7912;51.376;6.126;2023-05-29T09:33:21;9.83;;;3.40;;
15624;SDS011;7912;51.376;6.126;2023-05-29T09:35:48;5.87;;;3.13;;
15624;SDS011;7912;51.376;6.126;2023-05-29T09:38:17;6.80;;;2.90;;
15624;SDS011;7912;51.376;6.126;2023-05-29T09:41:06;7.50;;;3.20;;
15624;SDS011;7912;51.376;6.126;2023-05-29T09:43:33;6.67;;;3.13;;
15624;SDS011;7912;51.376;6.126;2023-05-29T09:46:01;10.07;;;3.47;;
15624;SDS011;7912;51.376;6.126;2023-05-29T09:48:33;7.63;;;3.10;;
15624;SDS011;7912;51.376;6.126;2023-05-29T09:51:02;6.20;;;2.97;;
15624;SDS011;7912;51.376;6.126;2023-05-29T09:53:30;7.10;;;2.90;;
15624;SDS011;7912;51.376;6.126;2023-05-29T09:55:57;8.77;;;3.27;;
15624;SDS011;7912;51.376;6.126;2023-05-29T09:58:26;8.80;;;3.37;;
15624;SDS011;7912;51.376;6.126;2023-05-29T10:00:55;7.27;;;3.03;;
15624;SDS011;7912;51.376;6.126;2023-05-29T10:03:24;7.83;;;3.07;;
15624;SDS011;7912;51.376;6.126;2023-05-29T10:05:53;8.27;;;3.20;;
15624;SDS011;7912;51.376;6.126;2023-05-29T10:08:24;6.97;;;2.97;;
15624;SDS011;7912;51.376;6.126;2023-05-29T10:11:03;6.90;;;2.70;;
15624;SDS011;7912;51.376;6.126;2023-05-29T10:13:36;7.10;;;2.70;;
15624;SDS011;7912;51.376;6.126;2023-05-29T10:16:08;6.03;;;2.83;;
15624;SDS011;7912;51.376;6.126;2023-05-29T10:18:44;7.83;;;2.63;;
15624;SDS011;7912;51.376;6.126;2023-05-29T10:21:21;6.10;;;3.00;;
15624;SDS011;7912;51.376;6.126;2023-05-29T10:23:52;5.07;;;2.83;;
15624;SDS011;7912;51.376;6.126;2023-05-29T10:26:26;9.03;;;3.07;;
15624;SDS011;7912;51.376;6.126;2023-05-29T10:29:15;4.93;;;2.73;;
15624;SDS011;7912;51.376;6.126;2023-05-29T10:37:54;8.20;;;3.03;;
15624;SDS011;7912;51.376;6.126;2023-05-29T10:40:38;8.13;;;3.10;;
15624;SDS011;7912;51.376;6.126;2023-05-29T10:43:05;8.03;;;3.10;;
15624;SDS011;7912;51.376;6.126;2023-05-29T10:50:37;6.70;;;2.87;;
15624;SDS011;7912;51.376;6.126;2023-05-29T10:53:08;5.13;;;3.00;;
15624;SDS011;7912;51.376;6.126;2023-05-29T10:55:50;5.90;;;3.30;;
15624;SDS011;7912;51.376;6.126;2023-05-29T10:58:19;6.23;;;2.70;;
15624;SDS011;7912;51.376;6.126;2023-05-29T11:00:52;7.43;;;3.47;;
15624;SDS011;7912;51.376;6.126;2023-05-29T11:03:25;8.23;;;2.77;;
15624;SDS011;7912;51.376;6.126;2023-05-29T11:05:58;8.47;;;2.80;;
15624;SDS011;7912;51.376;6.126;2023-05-29T11:08:32;5.93;;;2.93;;
15624;SDS011;7912;51.376;6.126;2023-05-29T11:11:02;5.13;;;2.80;;
15624;SDS011;7912;51.376;6.126;2023-05-29T11:13:33;4.97;;;2.97;;
15624;SDS011;7912;51.376;6.126;2023-05-29T11:16:13;7.90;;;3.00;;
15624;SDS011;7912;51.376;6.126;2023-05-29T11:18:56;6.20;;;2.63;;
15624;SDS011;7912;51.376;6.126;2023-05-29T11:24:05;5.63;;;2.80;;
15624;SDS011;7912;51.376;6.126;2023-05-29T11:26:34;6.90;;;2.70;;
15624;SDS011;7912;51.376;6.126;2023-05-29T11:29:04;5.73;;;2.73;;
15624;SDS011;7912;51.376;6.126;2023-05-29T11:31:33;7.07;;;2.80;;
15624;SDS011;7912;51.376;6.126;2023-05-29T11:34:03;6.77;;;2.83;;
15624;SDS011;7912;51.376;6.126;2023-05-29T11:36:32;8.80;;;2.97;;
15624;SDS011;7912;51.376;6.126;2023-05-29T11:39:03;4.80;;;2.80;;
15624;SDS011;7912;51.376;6.126;2023-05-29T11:41:31;5.17;;;2.80;;
15624;SDS011;7912;51.376;6.126;2023-05-29T11:43:59;6.37;;;2.90;;
15624;SDS011;7912;51.376;6.126;2023-05-29T11:46:29;5.37;;;2.47;;
15624;SDS011;7912;51.376;6.126;2023-05-29T11:49:01;6.00;;;2.80;;
15624;SDS011;7912;51.376;6.126;2023-05-29T11:51:28;7.77;;;2.70;;
15624;SDS011;7912;51.376;6.126;2023-05-29T11:53:56;5.03;;;2.70;;
15624;SDS011;7912;51.376;6.126;2023-05-29T11:56:25;4.47;;;2.57;;
15624;SDS011;7912;51.376;6.126;2023-05-29T11:58:54;6.40;;;2.70;;
15624;SDS011;7912;51.376;6.126;2023-05-29T12:01:26;7.03;;;2.80;;
15624;SDS011;7912;51.376;6.126;2023-05-29T12:03:55;6.07;;;2.83;;
15624;SDS011;7912;51.376;6.126;2023-05-29T12:06:32;5.03;;;2.73;;
15624;SDS011;7912;51.376;6.126;2023-05-29T12:09:01;5.20;;;2.47;;
15624;SDS011;7912;51.376;6.126;2023-05-29T12:11:51;6.57;;;3.00;;
15624;SDS011;7912;51.376;6.126;2023-05-29T12:14:25;5.57;;;2.80;;
15624;SDS011;7912;51.376;6.126;2023-05-29T12:16:52;5.30;;;2.67;;
15624;SDS011;7912;51.376;6.126;2023-05-29T12:25:07;6.07;;;2.50;;
15624;SDS011;7912;51.376;6.126;2023-05-29T12:27:39;8.60;;;2.93;;
15624;SDS011;7912;51.376;6.126;2023-05-29T12:30:09;6.23;;;2.70;;
15624;SDS011;7912;51.376;6.126;2023-05-29T12:32:54;5.70;;;2.87;;
15624;SDS011;7912;51.376;6.126;2023-05-29T12:35:26;5.57;;;2.70;;
15624;SDS011;7912;51.376;6.126;2023-05-29T12:38:00;4.47;;;2.47;;
15624;SDS011;7912;51.376;6.126;2023-05-29T12:40:31;5.37;;;2.73;;
15624;SDS011;7912;51.376;6.126;2023-05-29T12:43:01;4.87;;;2.60;;
15624;SDS011;7912;51.376;6.126;2023-05-29T12:45:31;5.90;;;2.90;;
15624;SDS011;7912;51.376;6.126;2023-05-29T12:48:04;4.27;;;2.47;;
15624;SDS011;7912;51.376;6.126;2023-05-29T12:50:40;7.77;;;2.77;;
15624;SDS011;7912;51.376;6.126;2023-05-29T12:53:21;6.50;;;2.60;;
15624;SDS011;7912;51.376;6.126;2023-05-29T12:55:55;5.80;;;2.60;;
15624;SDS011;7912;51.376;6.126;2023-05-29T12:58:23;5.80;;;2.80;;
15624;SDS011;7912;51.376;6.126;2023-05-29T13:00:52;6.17;;;2.80;;
15624;SDS011;7912;51.376;6.126;2023-05-29T13:03:22;7.43;;;2.60;;
15624;SDS011;7912;51.376;6.126;2023-05-29T13:05:50;5.53;;;2.50;;
15624;SDS011;7912;51.376;6.126;2023-05-29T13:08:19;4.43;;;2.63;;
15624;SDS011;7912;51.376;6.126;2023-05-29T13:10:47;5.20;;;2.90;;
15624;SDS011;7912;51.376;6.126;2023-05-29T13:13:14;5.53;;;2.53;;
15624;SDS011;7912;51.376;6.126;2023-05-29T13:15:41;5.93;;;2.70;;
15624;SDS011;7912;51.376;6.126;2023-05-29T13:18:09;5.17;;;2.33;;
15624;SDS011;7912;51.376;6.126;2023-05-29T13:20:36;5.40;;;2.73;;
15624;SDS011;7912;51.376;6.126;2023-05-29T13:23:03;6.77;;;3.00;;
15624;SDS011;7912;51.376;6.126;2023-05-29T13:25:31;5.87;;;2.50;;
15624;SDS011;7912;51.376;6.126;2023-05-29T13:27:58;6.10;;;3.00;;
15624;SDS011;7912;51.376;6.126;2023-05-29T13:30:26;5.23;;;2.83;;
15624;SDS011;7912;51.376;6.126;2023-05-29T13:32:53;6.30;;;2.80;;
15624;SDS011;7912;51.376;6.126;2023-05-29T13:35:20;7.57;;;3.30;;
15624;SDS011;7912;51.376;6.126;2023-05-29T13:37:48;5.93;;;2.77;;
15624;SDS011;7912;51.376;6.126;2023-05-29T13:40:16;6.33;;;2.60;;
15624;SDS011;7912;51.376;6.126;2023-05-29T13:42:43;11.97;;;3.30;;
15624;SDS011;7912;51.376;6.126;2023-05-29T13:45:11;5.77;;;2.80;;
15624;SDS011;7912;51.376;6.126;2023-05-29T13:47:39;7.73;;;3.33;;
15624;SDS011;7912;51.376;6.126;2023-05-29T13:50:07;5.83;;;2.70;;
15624;SDS011;7912;51.376;6.126;2023-05-29T13:52:35;6.70;;;3.10;;
15624;SDS011;7912;51.376;6.126;2023-05-29T13:55:03;7.20;;;3.10;;
15624;SDS011;7912;51.376;6.126;2023-05-29T13:57:35;6.83;;;3.20;;
15624;SDS011;7912;51.376;6.126;2023-05-29T14:00:06;8.40;;;3.03;;
15624;SDS011;7912;51.376;6.126;2023-05-29T14:02:35;6.03;;;2.90;;
15624;SDS011;7912;51.376;6.126;2023-05-29T14:05:03;8.60;;;2.90;;
15624;SDS011;7912;51.376;6.126;2023-05-29T14:07:33;7.00;;;2.97;;
15624;SDS011;7912;51.376;6.126;2023-05-29T14:10:01;6.57;;;3.60;;
15624;SDS011;7912;51.376;6.126;2023-05-29T14:12:29;8.27;;;3.47;;
15624;SDS011;7912;51.376;6.126;2023-05-29T14:14:59;5.73;;;2.77;;
15624;SDS011;7912;51.376;6.126;2023-05-29T14:17:26;8.13;;;2.90;;
15624;SDS011;7912;51.376;6.126;2023-05-29T14:19:54;8.23;;;3.03;;
15624;SDS011;7912;51.376;6.126;2023-05-29T14:22:22;6.20;;;2.93;;
15624;SDS011;7912;51.376;6.126;2023-05-29T14:24:49;8.93;;;3.40;;
15624;SDS011;7912;51.376;6.126;2023-05-29T14:27:17;9.07;;;3.50;;
15624;SDS011;7912;51.376;6.126;2023-05-29T14:29:47;5.33;;;3.07;;
15624;SDS011;7912;51.376;6.126;2023-05-29T14:32:15;7.20;;;2.93;;
15624;SDS011;7912;51.376;6.126;2023-05-29T14:34:42;5.63;;;3.40;;
15624;SDS011;7912;51.376;6.126;2023-05-29T14:37:09;9.80;;;3.23;;
15624;SDS011;7912;51.376;6.126;2023-05-29T14:39:37;7.30;;;3.60;;
15624;SDS011;7912;51.376;6.126;2023-05-29T14:42:04;5.60;;;3.00;;
15624;SDS011;7912;51.376;6.126;2023-05-29T14:44:33;9.57;;;3.13;;
15624;SDS011;7912;51.376;6.126;2023-05-29T14:47:00;7.03;;;3.27;;
15624;SDS011;7912;51.376;6.126;2023-05-29T14:49:28;6.07;;;3.20;;
15624;SDS011;7912;51.376;6.126;2023-05-29T14:51:58;7.10;;;3.30;;
15624;SDS011;7912;51.376;6.126;2023-05-29T14:54:26;6.80;;;2.83;;
15624;SDS011;7912;51.376;6.126;2023-05-29T14:56:54;6.03;;;3.00;;
15624;SDS011;7912;51.376;6.126;2023-05-29T14:59:22;6.47;;;3.30;;
15624;SDS011;7912;51.376;6.126;2023-05-29T15:01:50;7.60;;;3.43;;
15624;SDS011;7912;51.376;6.126;2023-05-29T15:04:17;6.17;;;3.30;;
15624;SDS011;7912;51.376;6.126;2023-05-29T15:06:44;6.63;;;3.47;;
15624;SDS011;7912;51.376;6.126;2023-05-29T15:09:20;5.40;;;2.70;;
15624;SDS011;7912;51.376;6.126;2023-05-29T15:11:48;5.10;;;2.70;;
15624;SDS011;7912;51.376;6.126;2023-05-29T15:14:16;7.17;;;3.10;;
15624;SDS011;7912;51.376;6.126;2023-05-29T15:16:44;6.43;;;3.27;;
15624;SDS011;7912;51.376;6.126;2023-05-29T15:19:12;7.17;;;2.77;;
15624;SDS011;7912;51.376;6.126;2023-05-29T15:21:39;6.67;;;3.20;;
15624;SDS011;7912;51.376;6.126;2023-05-29T15:24:06;5.97;;;2.63;;
15624;SDS011;7912;51.376;6.126;2023-05-29T15:26:33;7.37;;;3.60;;
15624;SDS011;7912;51.376;6.126;2023-05-29T15:29:03;7.47;;;3.63;;
15624;SDS011;7912;51.376;6.126;2023-05-29T15:31:30;7.27;;;3.70;;
15624;SDS011;7912;51.376;6.126;2023-05-29T15:34:07;9.50;;;3.87;;
15624;SDS011;7912;51.376;6.126;2023-05-29T15:36:54;7.53;;;3.50;;
15624;SDS011;7912;51.376;6.126;2023-05-29T15:39:22;6.50;;;2.83;;
15624;SDS011;7912;51.376;6.126;2023-05-29T15:41:49;5.67;;;2.93;;
15624;SDS011;7912;51.376;6.126;2023-05-29T15:44:16;8.43;;;2.93;;